createdAt,value
2022-11-03T00:03:16.530Z,97695.84
2022-11-03T00:08:18.388Z,97690.69
2022-11-03T00:13:20.186Z,97689.00
2022-11-03T00:18:21.867Z,97680.28
2022-11-03T00:23:25.741Z,97684.03
2022-11-03T00:28:27.389Z,97682.38
2022-11-03T00:33:32.861Z,97670.88
2022-11-03T00:38:34.890Z,97662.09
2022-11-03T00:43:36.861Z,97664.59
2022-11-03T00:48:39.255Z,97674.53
2022-11-03T00:53:46.208Z,97659.44
2022-11-03T00:58:49.387Z,97661.69
2022-11-03T01:04:13.868Z,97654.69
2022-11-03T01:09:21.901Z,97638.75
2022-11-03T01:14:25.679Z,97649.72
2022-11-03T01:19:28.090Z,97648.56
2022-11-03T01:24:29.897Z,97640.94
2022-11-03T01:29:31.627Z,97639.47
2022-11-03T01:34:33.421Z,97632.13
2022-11-03T01:39:35.262Z,97630.59
2022-11-03T01:44:42.005Z,97622.94
2022-11-03T01:49:46.788Z,97611.19
2022-11-03T01:54:53.874Z,97602.84
2022-11-03T01:59:58.375Z,97598.88
2022-11-03T02:05:02.756Z,97588.28
2022-11-03T02:10:05.338Z,97584.25
2022-11-03T02:15:13.696Z,97586.19
2022-11-03T02:20:19.023Z,97578.03
2022-11-03T02:25:50.767Z,97569.25
2022-11-03T02:31:08.518Z,97566.00
2022-11-03T02:36:17.933Z,97547.13
2022-11-03T02:41:21.587Z,97548.66
2022-11-03T02:46:26.179Z,97540.06
2022-11-03T02:51:28.223Z,97520.41
2022-11-03T02:56:31.756Z,97508.81
2022-11-03T03:01:34.984Z,97512.00
2022-11-03T03:06:42.891Z,97508.22
2022-11-03T03:11:46.912Z,97503.47
2022-11-03T03:17:13.278Z,97504.38
2022-11-03T03:22:24.823Z,97507.09
2022-11-03T03:27:29.613Z,97506.16
2022-11-03T03:32:37.518Z,97500.50
2022-11-03T03:37:45.260Z,97500.59
2022-11-03T03:42:48.347Z,97501.88
2022-11-03T03:47:53.655Z,97495.91
2022-11-03T03:53:05.042Z,97493.78
2022-11-03T03:58:10.595Z,97485.66
2022-11-03T04:03:23.961Z,97477.34
2022-11-03T04:08:25.830Z,97479.59
2022-11-03T04:13:46.305Z,97488.91
2022-11-03T04:19:06.584Z,97479.53
2022-11-03T04:24:08.341Z,97477.97
2022-11-03T04:29:11.801Z,97467.00
2022-11-03T04:34:13.556Z,97466.75
2022-11-03T04:39:20.196Z,97460.19
2022-11-03T04:44:22.317Z,97455.59
2022-11-03T04:49:24.156Z,97446.75
2022-11-03T04:54:26.580Z,97449.63
2022-11-03T04:59:28.782Z,97435.88
2022-11-03T05:04:30.453Z,97426.44
2022-11-03T05:09:32.262Z,97417.75
2022-11-03T05:14:34.114Z,97406.22
2022-11-03T05:19:42.016Z,97408.94
2022-11-03T05:24:44.275Z,97402.66
2022-11-03T05:29:46.108Z,97391.69
2022-11-03T05:34:51.106Z,97385.09
2022-11-03T05:39:55.609Z,97378.34
2022-11-03T05:44:57.964Z,97365.44
2022-11-03T05:50:14.612Z,97356.53
2022-11-03T05:55:43.469Z,97367.06
2022-11-03T06:00:48.617Z,97359.34
2022-11-03T06:05:51.615Z,97349.78
2022-11-03T06:10:55.333Z,97350.50
2022-11-03T06:16:01.251Z,97345.78
2022-11-03T06:21:12.637Z,97342.00
2022-11-03T06:26:20.911Z,97336.69
2022-11-03T06:31:31.609Z,97342.22
2022-11-03T06:36:36.711Z,97338.00
2022-11-03T06:41:38.416Z,97336.31
2022-11-03T06:46:40.151Z,97335.38
2022-11-03T06:51:41.781Z,97338.22
2022-11-03T06:56:43.420Z,97337.75
2022-11-03T07:01:48.487Z,97341.88
2022-11-03T07:06:53.567Z,97328.88
2022-11-03T07:11:59.544Z,97326.16
2022-11-03T07:17:04.807Z,97326.03
2022-11-03T07:22:16.624Z,97324.25
2022-11-03T07:27:28.970Z,97316.91
2022-11-03T07:32:33.272Z,97304.38
2022-11-03T07:37:35.381Z,97295.84
2022-11-03T07:42:37.049Z,97291.56
2022-11-03T07:47:43.901Z,97286.13
2022-11-03T07:52:45.960Z,97277.63
2022-11-03T07:57:48.180Z,97267.81
2022-11-03T08:02:58.294Z,97265.06
2022-11-03T08:08:00.683Z,97248.59
2022-11-03T08:13:02.361Z,97238.41
2022-11-03T08:18:04.212Z,97238.16
2022-11-03T08:23:24.740Z,97226.06
2022-11-03T08:28:27.317Z,97203.31
2022-11-03T08:38:31.326Z,97191.53
2022-11-03T08:43:33.303Z,97180.72
2022-11-03T08:48:35.170Z,97179.75
2022-11-03T08:53:38.476Z,97178.25
2022-11-03T08:58:40.733Z,97168.66
2022-11-03T09:03:42.618Z,97175.47
2022-11-03T09:14:06.338Z,97150.59
2022-11-03T09:19:08.168Z,97139.41
2022-11-03T09:24:10.477Z,97134.19
2022-11-03T09:29:12.111Z,97125.69
2022-11-03T09:34:13.969Z,97118.75
2022-11-03T09:39:15.660Z,97113.44
2022-11-03T09:44:17.667Z,97119.00
2022-11-03T09:49:21.238Z,97121.25
2022-11-03T09:54:23.104Z,97111.50
2022-11-03T09:59:25.133Z,97103.91
2022-11-03T10:04:28.407Z,97105.63
2022-11-03T10:09:30.107Z,97091.97
2022-11-03T10:14:31.723Z,97082.41
2022-11-03T10:19:33.572Z,97072.00
2022-11-03T10:24:35.849Z,97068.50
2022-11-03T10:29:39.927Z,97071.78
2022-11-03T10:34:42.995Z,97065.22
2022-11-03T10:39:45.785Z,97053.75
2022-11-03T10:44:48.329Z,97045.81
2022-11-03T10:49:50.119Z,97045.53
2022-11-03T10:54:54.608Z,97041.97
2022-11-03T10:59:56.479Z,97049.66
2022-11-03T11:05:01.340Z,97037.34
2022-11-03T11:10:07.865Z,97032.41
2022-11-03T11:15:36.540Z,97026.94
2022-11-03T11:20:39.072Z,97013.25
2022-11-03T11:26:05.857Z,97018.19
2022-11-03T11:31:22.556Z,97019.31
2022-11-03T11:36:25.396Z,97010.00
2022-11-03T11:41:45.652Z,96986.47
2022-11-03T11:46:47.468Z,96990.84
2022-11-03T11:51:49.171Z,96977.13
2022-11-03T11:56:51.022Z,96975.50
2022-11-03T12:01:57.256Z,96972.47
2022-11-03T12:06:59.474Z,96970.56
2022-11-03T12:12:07.180Z,96962.59
2022-11-03T12:17:15.927Z,96973.28
2022-11-03T12:22:23.939Z,96945.34
2022-11-03T12:27:25.666Z,96937.69
2022-11-03T12:32:35.545Z,96951.38
2022-11-03T12:37:37.596Z,96949.16
2022-11-03T12:42:39.563Z,96918.47
2022-11-03T12:47:41.461Z,96906.69
2022-11-03T12:52:43.140Z,96888.56
2022-11-03T12:57:45.849Z,96890.25
2022-11-03T13:02:47.828Z,96888.06
2022-11-03T13:07:49.686Z,96882.34
2022-11-03T13:12:51.427Z,96883.47
2022-11-03T13:18:12.262Z,96862.09
2022-11-03T13:23:17.468Z,96843.94
2022-11-03T13:28:22.040Z,96829.34
2022-11-03T13:33:23.953Z,96815.97
2022-11-03T13:38:25.652Z,96796.53
2022-11-03T13:43:28.441Z,96785.84
2022-11-03T13:59:29.204Z,96785.78
2022-11-03T14:04:46.983Z,96784.66
2022-11-03T14:09:48.781Z,96777.75
2022-11-03T14:14:50.554Z,96763.22
2022-11-03T14:19:55.575Z,96739.38
2022-11-03T14:25:01.369Z,96728.69
2022-11-03T14:30:04.222Z,96738.59
2022-11-03T14:35:06.265Z,96727.06
2022-11-03T14:40:28.564Z,96730.31
2022-11-03T14:45:30.295Z,96732.56
2022-11-03T14:50:32.160Z,96724.84
2022-11-03T14:55:33.808Z,96711.19
2022-11-03T15:00:35.517Z,96695.56
2022-11-03T15:05:46.134Z,96681.09
2022-11-03T15:10:48.136Z,96674.38
2022-11-03T15:15:49.855Z,96675.16
2022-11-03T15:20:51.476Z,96669.19
2022-11-03T15:25:53.166Z,96636.91
2022-11-03T15:30:54.820Z,96617.91
2022-11-03T15:35:56.670Z,96600.47
2022-11-03T15:41:15.462Z,96577.50
2022-11-03T15:46:18.392Z,96570.63
2022-11-03T15:51:20.285Z,96580.16
2022-11-03T15:56:21.911Z,96573.53
2022-11-03T16:01:23.902Z,96565.81
2022-11-03T16:06:46.480Z,96565.03
2022-11-03T16:11:47.559Z,96532.97
2022-11-03T16:16:49.221Z,96527.56
2022-11-03T16:21:51.625Z,96534.19
2022-11-03T16:26:53.352Z,96519.13
2022-11-03T16:31:55.010Z,96506.56
2022-11-03T16:36:56.801Z,96500.47
2022-11-03T16:41:58.849Z,96484.66
2022-11-03T16:47:01.524Z,96477.53
2022-11-03T16:52:03.406Z,96457.53
2022-11-03T16:57:05.680Z,96444.09
2022-11-03T17:02:10.853Z,96437.47
2022-11-03T17:07:15.311Z,96428.97
2022-11-03T17:12:17.070Z,96401.25
2022-11-03T17:17:18.731Z,96396.78
2022-11-03T17:22:22.198Z,96380.88
2022-11-03T17:27:27.873Z,96383.25
2022-11-03T17:32:36.815Z,96382.38
2022-11-03T17:37:38.497Z,96370.34
2022-11-03T17:42:40.299Z,96352.50
2022-11-03T17:47:42.813Z,96327.56
2022-11-03T17:52:46.421Z,96325.88
2022-11-03T17:57:48.828Z,96318.72
2022-11-03T18:02:51.414Z,96305.53
2022-11-03T18:07:54.816Z,96302.50
2022-11-03T18:13:18.297Z,96288.50
2022-11-03T18:18:34.562Z,96276.53
2022-11-03T18:23:36.253Z,96260.91
2022-11-03T18:28:37.904Z,96272.31
2022-11-03T18:33:39.611Z,96260.47
2022-11-03T18:38:44.279Z,96261.00
2022-11-03T18:43:45.989Z,96261.22
2022-11-03T18:48:47.623Z,96262.03
2022-11-03T18:53:49.297Z,96258.19
2022-11-03T18:58:53.560Z,96234.13
2022-11-03T19:03:56.563Z,96226.97
2022-11-03T19:08:59.937Z,96223.03
2022-11-03T19:14:01.736Z,96212.16
2022-11-03T19:19:03.583Z,96211.91
2022-11-03T19:24:05.486Z,96198.31
2022-11-03T19:29:12.444Z,96185.13
2022-11-03T19:34:20.864Z,96178.69
2022-11-03T19:39:26.899Z,96171.38
2022-11-03T19:44:28.850Z,96160.03
2022-11-03T19:49:30.702Z,96135.41
2022-11-03T19:54:32.379Z,96116.78
2022-11-03T19:59:34.118Z,96099.19
2022-11-03T20:04:35.860Z,96074.69
2022-11-03T20:09:38.025Z,96075.38
2022-11-03T20:14:39.685Z,96084.53
2022-11-03T20:19:41.387Z,96100.84
2022-11-03T20:24:45.320Z,96091.31
2022-11-03T20:29:48.650Z,96084.06
2022-11-03T20:34:50.537Z,96075.78
2022-11-03T20:39:52.458Z,96063.41
2022-11-03T20:44:54.665Z,96046.03
2022-11-03T20:49:56.606Z,96036.19
2022-11-03T20:54:58.822Z,96031.09
2022-11-03T21:00:00.505Z,96018.75
2022-11-03T21:05:02.249Z,96008.47
2022-11-03T21:10:04.087Z,95993.19
2022-11-03T21:15:36.331Z,96000.38
2022-11-03T21:20:38.413Z,95993.25
2022-11-03T21:25:40.294Z,95980.88
2022-11-03T21:30:42.105Z,95981.69
2022-11-03T21:35:45.675Z,95991.94
2022-11-03T21:40:55.241Z,95990.25
2022-11-03T21:46:11.919Z,95996.47
2022-11-03T21:51:13.611Z,95989.13
2022-11-03T21:56:15.930Z,95998.25
2022-11-03T22:01:17.827Z,95995.38
2022-11-03T22:06:19.963Z,95985.22
2022-11-03T22:11:21.791Z,96008.75
2022-11-03T22:16:36.676Z,96008.16
2022-11-03T22:21:56.888Z,96001.50
2022-11-03T22:27:00.486Z,95983.25
2022-11-03T22:32:02.544Z,95959.50
2022-11-03T22:37:04.413Z,95964.75
2022-11-03T22:42:24.602Z,96000.97
2022-11-03T22:47:26.709Z,95984.88
2022-11-03T22:52:28.350Z,96030.09
2022-11-03T22:57:30.037Z,96023.69
2022-11-03T23:02:32.044Z,96000.31
2022-11-03T23:07:41.272Z,96066.63
2022-11-03T23:12:43.280Z,96042.78
2022-11-03T23:18:03.299Z,96044.47
2022-11-03T23:23:05.280Z,96038.81
2022-11-03T23:28:07.122Z,96076.66
2022-11-03T23:33:09.036Z,96109.69
2022-11-03T23:38:11.293Z,96120.16
2022-11-03T23:43:12.957Z,96119.38
2022-11-03T23:48:33.229Z,96129.50
2022-11-03T23:53:35.037Z,96127.28
2022-11-03T23:58:36.799Z,96112.25
